createdAt,value
2019-05-05T00:03:18.816Z,9.93
2019-05-05T00:08:15.205Z,9.73
2019-05-05T00:13:10.774Z,11.60
2019-05-05T00:18:05.468Z,10.93
2019-05-05T00:22:59.513Z,10.63
2019-05-05T00:27:54.586Z,10.27
2019-05-05T00:32:48.669Z,10.63
2019-05-05T00:37:42.607Z,11.23
2019-05-05T00:42:36.671Z,11.10
2019-05-05T00:47:47.861Z,10.93
2019-05-05T00:52:41.952Z,10.73
2019-05-05T00:57:36.002Z,10.57
2019-05-05T01:02:31.853Z,9.87
2019-05-05T01:07:26.015Z,10.40
2019-05-05T01:12:20.351Z,10.13
2019-05-05T01:17:14.818Z,10.47
2019-05-05T01:22:08.952Z,10.47
2019-05-05T01:27:04.256Z,10.63
2019-05-05T01:32:00.422Z,10.67
2019-05-05T01:36:56.308Z,10.77
2019-05-05T01:41:54.191Z,11.63
2019-05-05T01:46:48.053Z,12.57
2019-05-05T01:51:42.018Z,12.40
2019-05-05T01:56:36.066Z,14.07
2019-05-05T02:01:30.013Z,16.93
2019-05-05T02:06:24.846Z,15.73
2019-05-05T02:11:19.049Z,14.53
2019-05-05T02:16:14.931Z,14.73
2019-05-05T02:21:09.165Z,15.93
2019-05-05T02:26:04.828Z,16.67
2019-05-05T02:31:18.803Z,13.83
2019-05-05T02:36:15.729Z,13.47
2019-05-05T02:41:09.136Z,12.07
2019-05-05T02:46:17.542Z,12.83
2019-05-05T02:51:14.800Z,12.30
2019-05-05T02:56:10.262Z,11.97
2019-05-05T03:01:14.003Z,11.90
2019-05-05T03:06:08.094Z,11.70
2019-05-05T03:11:03.909Z,11.00
2019-05-05T03:16:19.984Z,11.87
2019-05-05T03:21:14.335Z,11.03
2019-05-05T03:26:08.374Z,12.50
2019-05-05T03:31:05.050Z,12.97
2019-05-05T03:35:58.437Z,12.60
2019-05-05T03:40:54.388Z,12.60
2019-05-05T03:45:56.288Z,11.40
2019-05-05T03:50:50.359Z,12.27
2019-05-05T03:55:44.400Z,11.70
2019-05-05T04:00:54.942Z,11.97
2019-05-05T04:05:53.872Z,12.23
2019-05-05T04:10:48.244Z,11.50
2019-05-05T04:15:44.257Z,12.13
2019-05-05T04:20:38.313Z,11.90
2019-05-05T04:25:32.274Z,12.43
2019-05-05T04:30:26.235Z,12.03
2019-05-05T04:35:20.266Z,11.87
2019-05-05T04:40:14.962Z,11.70
2019-05-05T04:45:09.277Z,12.37
2019-05-05T04:50:06.741Z,11.53
2019-05-05T04:55:00.722Z,12.27
2019-05-05T04:59:54.703Z,11.73
2019-05-05T05:05:04.015Z,12.50
2019-05-05T05:09:58.093Z,13.60
2019-05-05T05:14:54.490Z,12.90
2019-05-05T05:19:48.096Z,11.77
2019-05-05T05:24:42.076Z,10.77
2019-05-05T05:29:36.229Z,8.03
2019-05-05T05:34:30.205Z,10.40
2019-05-05T05:39:26.083Z,8.83
2019-05-05T05:44:38.584Z,9.70
2019-05-05T05:49:37.272Z,9.67
2019-05-05T05:54:31.262Z,7.57
2019-05-05T05:59:25.228Z,6.83
2019-05-05T06:04:19.189Z,7.10
2019-05-05T06:09:14.822Z,7.60
2019-05-05T06:14:08.839Z,7.27
2019-05-05T06:19:03.637Z,7.40
2019-05-05T06:23:57.912Z,6.77
2019-05-05T06:28:53.957Z,6.83
2019-05-05T06:33:47.748Z,7.00
2019-05-05T06:38:43.648Z,7.37
2019-05-05T06:43:56.127Z,8.00
2019-05-05T06:48:53.853Z,7.47
2019-05-05T06:53:47.944Z,7.73
2019-05-05T06:58:41.985Z,7.40
2019-05-05T07:03:35.952Z,8.23
2019-05-05T07:08:29.909Z,8.03
2019-05-05T07:13:24.477Z,7.87
2019-05-05T07:18:18.745Z,7.37
2019-05-05T07:23:14.480Z,6.67
2019-05-05T07:28:08.696Z,7.50
2019-05-05T07:33:04.580Z,7.17
2019-05-05T07:37:58.688Z,7.87
2019-05-05T07:42:54.017Z,8.20
2019-05-05T07:47:48.220Z,10.43
2019-05-05T07:52:43.896Z,11.20
2019-05-05T07:57:37.891Z,11.17
2019-05-05T08:02:33.738Z,13.57
2019-05-05T08:07:27.848Z,13.13
2019-05-05T08:12:21.981Z,11.70
2019-05-05T08:17:34.653Z,14.20
2019-05-05T08:22:28.812Z,11.57
2019-05-05T08:27:25.039Z,11.23
2019-05-05T08:32:24.003Z,9.90
2019-05-05T08:37:18.377Z,9.43
2019-05-05T08:42:14.368Z,9.43
2019-05-05T08:47:08.342Z,9.73
2019-05-05T08:52:04.032Z,9.43
2019-05-05T08:56:58.400Z,8.90
2019-05-05T09:01:54.118Z,9.17
2019-05-05T09:06:48.486Z,7.90
2019-05-05T09:11:43.785Z,9.20
2019-05-05T09:16:37.963Z,10.80
2019-05-05T09:21:31.945Z,10.60
2019-05-05T09:26:37.438Z,11.13
2019-05-05T09:31:31.423Z,8.97
2019-05-05T09:36:25.505Z,8.43
2019-05-05T09:41:19.538Z,8.67
2019-05-05T09:46:14.403Z,6.03
2019-05-05T09:51:08.614Z,6.63
2019-05-05T09:56:04.053Z,5.30
2019-05-05T10:00:58.338Z,5.87
2019-05-05T10:05:54.085Z,5.87
2019-05-05T10:10:48.242Z,6.13
2019-05-05T10:15:44.298Z,6.20
2019-05-05T10:20:38.144Z,6.10
2019-05-05T10:25:48.945Z,5.57
2019-05-05T10:30:43.032Z,5.80
2019-05-05T10:35:37.026Z,6.23
2019-05-05T10:40:33.865Z,6.23
2019-05-05T10:45:28.258Z,6.50
2019-05-05T10:50:24.462Z,5.60
2019-05-05T10:55:18.572Z,5.50
2019-05-05T11:00:15.680Z,5.50
2019-05-05T11:05:10.491Z,5.47
2019-05-05T11:10:04.987Z,5.75
2019-05-05T11:14:58.967Z,4.58
2019-05-05T11:19:53.202Z,4.37
2019-05-05T11:24:57.118Z,5.22
2019-05-05T11:30:04.031Z,5.58
2019-05-05T11:34:57.846Z,5.37
2019-05-05T11:39:53.659Z,5.45
2019-05-05T11:44:47.788Z,4.43
2019-05-05T11:49:41.758Z,4.40
2019-05-05T11:54:35.779Z,3.70
2019-05-05T11:59:29.981Z,3.90
2019-05-05T12:04:24.189Z,6.40
2019-05-05T12:09:20.192Z,6.30
2019-05-05T12:14:16.126Z,5.37
2019-05-05T12:19:13.563Z,3.70
2019-05-05T12:24:09.603Z,4.58
2019-05-05T12:29:05.598Z,3.90
2019-05-05T12:33:59.772Z,4.55
2019-05-05T12:38:54.641Z,4.40
2019-05-05T12:43:49.021Z,5.17
2019-05-05T12:48:51.149Z,5.37
2019-05-05T12:53:45.126Z,5.72
2019-05-05T12:58:39.179Z,6.17
2019-05-05T13:03:34.621Z,6.27
2019-05-05T13:08:28.772Z,6.00
2019-05-05T13:13:22.860Z,6.00
2019-05-05T13:18:16.905Z,6.53
2019-05-05T13:23:23.528Z,5.83
2019-05-05T13:28:17.728Z,5.57
2019-05-05T13:33:11.733Z,4.70
2019-05-05T13:38:05.726Z,4.12
2019-05-05T13:42:59.738Z,3.60
2019-05-05T13:47:54.159Z,3.25
2019-05-05T13:52:48.220Z,3.50
2019-05-05T13:57:44.332Z,3.50
2019-05-05T14:02:38.270Z,3.77
2019-05-05T14:07:34.185Z,3.72
2019-05-05T14:12:28.257Z,3.50
2019-05-05T14:17:22.342Z,3.50
2019-05-05T14:22:16.379Z,2.67
2019-05-05T14:27:10.369Z,2.75
2019-05-05T14:32:05.010Z,3.27
2019-05-05T14:37:17.781Z,2.98
2019-05-05T14:42:11.870Z,2.90
2019-05-05T14:47:06.077Z,2.80
2019-05-05T14:52:00.066Z,2.72
2019-05-05T14:56:54.489Z,2.80
2019-05-05T15:01:48.448Z,2.83
2019-05-05T15:06:44.415Z,2.90
2019-05-05T15:11:58.468Z,2.80
2019-05-05T15:16:54.235Z,3.02
2019-05-05T15:21:48.921Z,3.00
2019-05-05T15:26:51.879Z,2.87
2019-05-05T15:31:39.124Z,3.22
2019-05-05T15:36:33.547Z,3.52
2019-05-05T15:41:27.859Z,3.17
2019-05-05T15:46:21.977Z,3.42
2019-05-05T15:51:15.968Z,3.37
2019-05-05T15:56:10.108Z,3.30
2019-05-05T16:01:04.195Z,3.52
2019-05-05T16:05:58.412Z,2.72
2019-05-05T16:10:54.424Z,2.98
2019-05-05T16:15:50.386Z,2.75
2019-05-05T16:21:03.490Z,2.42
2019-05-05T16:25:57.621Z,2.37
2019-05-05T16:30:53.371Z,2.30
2019-05-05T16:35:47.615Z,2.40
2019-05-05T16:40:44.308Z,3.17
2019-05-05T16:45:38.521Z,2.55
2019-05-05T16:50:34.075Z,2.90
2019-05-05T16:55:34.485Z,2.50
2019-05-05T17:00:28.990Z,2.72
2019-05-05T17:05:24.105Z,2.98
2019-05-05T17:10:18.514Z,3.30
2019-05-05T17:15:14.714Z,3.10
2019-05-05T17:20:17.017Z,3.20
2019-05-05T17:25:13.854Z,3.27
2019-05-05T17:30:08.545Z,3.90
2019-05-05T17:35:03.911Z,3.83
2019-05-05T17:39:59.958Z,4.33
2019-05-05T17:44:55.853Z,4.33
2019-05-05T17:49:57.701Z,4.80
2019-05-05T17:54:53.934Z,4.03
2019-05-05T17:59:48.174Z,3.97
2019-05-05T18:04:44.383Z,4.03
2019-05-05T18:09:55.885Z,3.80
2019-05-05T18:14:53.667Z,3.70
2019-05-05T18:19:47.723Z,4.17
2019-05-05T18:24:41.770Z,4.03
2019-05-05T18:29:35.862Z,4.33
2019-05-05T18:34:30.272Z,4.80
2019-05-05T18:39:24.860Z,5.73
2019-05-05T18:44:24.171Z,5.10
2019-05-05T18:49:18.359Z,5.40
2019-05-05T18:54:12.467Z,4.63
2019-05-05T18:59:06.868Z,5.10
2019-05-05T19:04:04.189Z,4.60
2019-05-05T19:09:02.535Z,4.97
2019-05-05T19:13:56.526Z,4.70
2019-05-05T19:18:50.712Z,5.87
2019-05-05T19:23:44.875Z,6.23
2019-05-05T19:28:44.426Z,6.17
2019-05-05T19:33:35.278Z,6.47
2019-05-05T19:38:29.371Z,6.27
2019-05-05T19:43:24.539Z,5.50
2019-05-05T19:48:18.638Z,5.23
2019-05-05T19:53:24.637Z,4.93
2019-05-05T19:58:18.914Z,4.87
2019-05-05T20:03:14.345Z,5.37
2019-05-05T20:08:08.543Z,5.13
2019-05-05T20:13:04.844Z,5.20
2019-05-05T20:17:58.507Z,4.50
2019-05-05T20:22:54.672Z,4.87
2019-05-05T20:27:48.396Z,5.73
2019-05-05T20:32:56.637Z,6.50
2019-05-05T20:37:54.138Z,5.97
2019-05-05T20:42:48.224Z,6.00
2019-05-05T20:47:43.973Z,6.60
2019-05-05T20:52:37.994Z,6.07
2019-05-05T20:57:31.985Z,6.07
2019-05-05T21:02:26.084Z,6.23
2019-05-05T21:07:23.371Z,5.20
2019-05-05T21:12:16.026Z,5.63
2019-05-05T21:17:10.269Z,5.60
2019-05-05T21:22:23.218Z,5.70
2019-05-05T21:27:17.191Z,5.73
2019-05-05T21:32:11.190Z,5.20
2019-05-05T21:37:05.300Z,5.17
2019-05-05T21:41:59.369Z,5.63
2019-05-05T21:46:53.787Z,5.17
2019-05-05T21:51:55.803Z,6.37
2019-05-05T21:56:54.730Z,5.83
2019-05-05T22:01:50.034Z,5.87
2019-05-05T22:06:44.124Z,6.07
2019-05-05T22:11:38.183Z,5.57
2019-05-05T22:16:35.287Z,5.90
2019-05-05T22:21:29.921Z,5.83
2019-05-05T22:26:24.073Z,6.20
2019-05-05T22:31:18.089Z,6.53
2019-05-05T22:36:14.075Z,6.20
2019-05-05T22:41:07.928Z,6.17
2019-05-05T22:46:03.567Z,6.33
2019-05-05T22:50:57.707Z,6.63
2019-05-05T22:55:51.720Z,6.80
2019-05-05T23:00:45.790Z,6.70
2019-05-05T23:05:56.497Z,6.87
2019-05-05T23:10:50.447Z,6.93
2019-05-05T23:15:46.316Z,6.77
2019-05-05T23:21:04.636Z,6.70
2019-05-05T23:26:00.627Z,7.43
2019-05-05T23:30:54.818Z,7.13
2019-05-05T23:35:48.858Z,6.50
2019-05-05T23:40:42.812Z,7.17
2019-05-05T23:45:36.795Z,6.37
2019-05-05T23:50:30.782Z,7.00
2019-05-05T23:55:24.786Z,7.13
